Terminal Aerodrome Forecast
Issued by NWS Jackson, MS

Home | Current Version | Previous Version | Text Only | Print | Product List | Glossary On
Versions: 1 2 3 4 5 6 7 8 9 10 11 12
737
FTUS44 KJAN 080520
TAFGWO
TAF
KGWO 080520Z 0806/0906 24006KT P6SM SCT100 BKN250
     FM081300 30009G16KT P6SM SKC
     FM081500 31014G21KT P6SM SCT050
     FM081700 30011G18KT P6SM OVC050
     FM090200 28006KT P6SM SKC=

USA.gov is the U.S. government's official web portal to all federal, state and local government web resources and services.